Time;durP1;ratioP1;P1;durP2;ratioP2;P2;SDS_P1;SDS_P2;PMS_P1;PMS_P2;Temp;Humidity;BMP_temperature;BMP_pressure;BME280_temperature;BME280_humidity;BME280_pressure;Samples;Min_cycle;Max_cycle;Signal;HPM_P1;HPM_P2
2021/01/12 00:01:39;;;;;;;7.87;6.00;;;;;;;3.46;80.14;100021.34;5029721;28;20202;-63
2021/01/12 00:04:05;;;;;;;6.53;5.60;;;;;;;3.43;80.71;100011.78;5029835;28;20214;-63
2021/01/12 00:06:31;;;;;;;7.10;5.40;;;;;;;3.43;80.63;100013.56;5029731;28;20643;-64
2021/01/12 00:08:57;;;;;;;6.00;4.97;;;;;;;3.43;80.17;100009.16;5028726;28;20210;-63
2021/01/12 00:11:24;;;;;;;6.30;5.70;;;;;;;3.42;80.21;99996.91;5029846;28;20825;-63
2021/01/12 00:13:50;;;;;;;7.00;5.47;;;;;;;3.41;80.30;99997.00;5026138;28;20210;-64
2021/01/12 00:16:19;;;;;;;6.17;5.30;;;;;;;3.42;80.71;99994.28;5027649;28;20353;-64
2021/01/12 00:18:45;;;;;;;7.40;5.43;;;;;;;3.40;81.12;99990.03;5029348;28;20203;-64
2021/01/12 00:21:10;;;;;;;5.57;4.97;;;;;;;3.42;80.75;99994.28;5029546;28;20211;-64
2021/01/12 00:23:36;;;;;;;5.83;5.13;;;;;;;3.41;80.96;99991.72;5030173;28;20631;-63
2021/01/12 00:26:05;;;;;;;5.47;4.93;;;;;;;3.40;80.53;99990.88;5027475;28;20227;-64
2021/01/12 00:28:33;;;;;;;5.37;4.77;;;;;;;3.41;80.73;99992.56;5025184;28;20198;-64
2021/01/12 00:31:03;;;;;;;7.70;5.63;;;;;;;3.41;81.17;99992.56;5026920;28;20217;-63
2021/01/12 00:33:29;;;;;;;6.17;5.20;;;;;;;3.37;80.76;99991.03;5025652;28;20260;-64
2021/01/12 00:35:55;;;;;;;6.67;5.53;;;;;;;3.37;80.77;99977.88;5027561;28;20227;-64
2021/01/12 00:38:21;;;;;;;6.70;5.50;;;;;;;3.37;80.65;99977.88;5030752;28;20198;-63
2021/01/12 00:40:47;;;;;;;8.17;7.00;;;;;;;3.35;80.96;99981.50;5030324;28;20214;-63
2021/01/12 00:43:13;;;;;;;6.40;5.63;;;;;;;3.36;81.06;99978.78;5028866;28;20272;-64
2021/01/12 00:45:40;;;;;;;6.63;6.00;;;;;;;3.35;80.79;99969.19;5022625;28;20249;-63
2021/01/12 00:48:07;;;;;;;5.90;5.27;;;;;;;3.36;81.44;99967.41;5027611;28;20256;-63
2021/01/12 00:50:33;;;;;;;7.63;6.00;;;;;;;3.37;81.67;99958.59;5027849;28;20717;-64
2021/01/12 00:52:59;;;;;;;6.63;5.27;;;;;;;3.37;81.25;99966.47;5018946;28;20916;-64
2021/01/12 00:55:25;;;;;;;7.07;5.33;;;;;;;3.39;81.72;99954.13;5016887;28;20256;-64
2021/01/12 00:57:51;;;;;;;6.13;5.53;;;;;;;3.41;81.77;99957.50;5022399;28;20295;-63
2021/01/12 01:00:18;;;;;;;5.40;4.90;;;;;;;3.40;80.96;99955.81;5029530;28;20202;-64
2021/01/12 01:02:45;;;;;;;6.47;5.43;;;;;;;3.42;81.46;99946.06;5030673;28;20199;-63
2021/01/12 01:05:11;;;;;;;5.73;4.80;;;;;;;3.43;81.62;99942.50;5029917;28;20596;-64
2021/01/12 01:07:37;;;;;;;5.43;4.93;;;;;;;3.45;81.71;99940.66;5025927;28;20203;-64
2021/01/12 01:10:04;;;;;;;8.17;5.43;;;;;;;3.45;81.82;99936.25;5030766;28;20275;-64
2021/01/12 01:12:30;;;;;;;5.73;5.10;;;;;;;3.46;80.78;99930.06;5022637;28;20701;-64
2021/01/12 01:14:56;;;;;;;5.80;5.20;;;;;;;3.47;81.43;99918.59;5025793;28;20234;-64
2021/01/12 01:17:22;;;;;;;7.27;5.20;;;;;;;3.47;81.00;99918.59;5024906;28;20260;-63
2021/01/12 01:19:49;;;;;;;5.17;4.17;;;;;;;3.49;81.02;99915.91;5028866;28;20214;-63
2021/01/12 01:22:15;;;;;;;5.97;5.40;;;;;;;3.50;81.60;99925.50;5028292;28;20202;-64
2021/01/12 01:24:41;;;;;;;6.53;5.80;;;;;;;3.50;80.97;99917.63;5018160;28;20210;-64
2021/01/12 01:27:07;;;;;;;5.77;5.17;;;;;;;3.53;81.18;99916.63;5020977;28;20697;-64
2021/01/12 01:29:33;;;;;;;5.93;5.23;;;;;;;3.55;81.18;99914.78;5027439;28;20206;-64
2021/01/12 01:31:59;;;;;;;6.70;5.87;;;;;;;3.55;81.77;99918.28;5013414;28;20316;-64
2021/01/12 01:34:25;;;;;;;4.97;4.57;;;;;;;3.56;81.45;99908.59;5016827;28;20201;-64
2021/01/12 01:36:52;;;;;;;6.17;5.33;;;;;;;3.57;81.28;99907.66;5022515;28;20261;-63
2021/01/12 01:39:18;;;;;;;6.27;5.50;;;;;;;3.54;81.09;99906.03;5022229;28;20202;-63
2021/01/12 01:41:44;;;;;;;7.23;5.70;;;;;;;3.57;81.69;99905.03;5021668;28;20202;-64
2021/01/12 01:44:10;;;;;;;6.53;5.77;;;;;;;3.58;81.81;99894.44;5017358;28;20298;-63
2021/01/12 01:46:36;;;;;;;7.50;6.17;;;;;;;3.61;81.52;99898.69;5014252;28;20725;-63
2021/01/12 01:49:02;;;;;;;6.13;5.40;;;;;;;3.61;81.33;99889.00;5017203;28;20206;-64
2021/01/12 01:51:28;;;;;;;6.17;5.07;;;;;;;3.62;81.43;99887.22;5018801;28;20230;-63
2021/01/12 01:53:57;;;;;;;8.07;6.23;;;;;;;3.60;81.99;99887.28;5019264;28;20301;-63
2021/01/12 01:56:26;;;;;;;5.83;5.27;;;;;;;3.62;82.15;99887.22;5020138;28;20711;-63
2021/01/12 01:58:52;;;;;;;5.93;5.07;;;;;;;3.64;81.17;99882.75;5022027;28;20207;-64
2021/01/12 02:01:18;;;;;;;5.47;4.83;;;;;;;3.64;81.88;99878.31;5023656;28;20248;-64
2021/01/12 02:03:49;;;;;;;6.83;5.50;;;;;;;3.65;82.21;99879.19;5015492;28;20297;-64
2021/01/12 02:06:18;;;;;;;6.50;5.43;;;;;;;3.66;81.90;99870.34;5016542;28;20223;-64
2021/01/12 02:08:52;;;;;;;7.13;5.67;;;;;;;3.65;81.93;99873.91;5027521;28;20202;-64
2021/01/12 02:11:21;;;;;;;5.47;4.60;;;;;;;3.65;81.46;99856.34;5022130;28;20205;-64
2021/01/12 02:13:55;;;;;;;5.93;5.23;;;;;;;3.65;81.59;99842.31;5027057;28;20217;-63
2021/01/12 02:16:22;;;;;;;4.93;4.37;;;;;;;3.64;81.86;99845.88;5018622;28;20581;-64
2021/01/12 02:18:52;;;;;;;5.50;4.23;;;;;;;3.64;81.30;99840.63;5010564;28;20221;-64
2021/01/12 02:21:18;;;;;;;5.40;4.20;;;;;;;3.64;81.62;99832.72;5017659;28;20207;-64
2021/01/12 02:23:53;;;;;;;4.33;3.73;;;;;;;3.63;81.95;99831.00;5025660;28;20202;-64
2021/01/12 02:26:19;;;;;;;4.73;4.10;;;;;;;3.60;82.09;99817.97;5016599;28;20590;-64
2021/01/12 02:28:45;;;;;;;4.20;3.80;;;;;;;3.57;81.79;99826.91;5018902;28;20674;-64
2021/01/12 02:31:11;;;;;;;3.80;3.33;;;;;;;3.56;82.63;99811.19;5024634;28;20238;-63
2021/01/12 02:33:38;;;;;;;4.23;3.83;;;;;;;3.57;82.17;99818.16;5022905;28;20651;-63
2021/01/12 02:36:09;;;;;;;4.00;3.30;;;;;;;3.59;81.93;99817.13;5020569;28;20675;-64
2021/01/12 02:38:35;;;;;;;4.40;3.70;;;;;;;3.61;82.11;99814.41;5022048;28;20198;-64
2021/01/12 02:41:10;;;;;;;5.73;4.07;;;;;;;3.59;81.62;99801.31;5020087;28;20202;-64
2021/01/12 02:43:36;;;;;;;3.73;3.30;;;;;;;3.61;81.93;99806.53;5018117;28;20206;-64
2021/01/12 02:46:02;;;;;;;4.03;3.63;;;;;;;3.60;81.81;99791.66;5025050;28;20272;-64
2021/01/12 02:48:28;;;;;;;5.63;3.93;;;;;;;3.60;82.70;99789.03;5021754;28;20199;-64
2021/01/12 02:50:54;;;;;;;4.60;3.63;;;;;;;3.58;82.61;99777.72;5016570;28;20306;-64
2021/01/12 02:53:20;;;;;;;5.00;3.60;;;;;;;3.59;81.95;99789.94;5023992;28;20352;-64
2021/01/12 02:55:46;;;;;;;5.60;3.97;;;;;;;3.59;82.31;99777.63;5045607;22;20316;-66
2021/01/12 02:58:13;;;;;;;4.97;4.13;;;;;;;3.58;82.55;99777.72;5050341;28;20241;-66
2021/01/12 03:00:39;;;;;;;5.73;3.93;;;;;;;3.57;82.49;99771.63;5043205;28;20205;-66
2021/01/12 03:03:05;;;;;;;4.67;3.90;;;;;;;3.57;82.07;99766.34;5049816;28;20243;-67
2021/01/12 03:05:31;;;;;;;5.20;3.90;;;;;;;3.58;82.41;99761.94;5048718;28;20224;-66
2021/01/12 03:07:57;;;;;;;4.20;3.60;;;;;;;3.57;82.55;99758.44;5044430;28;20249;-66
2021/01/12 03:10:23;;;;;;;4.10;3.70;;;;;;;3.57;82.32;99753.19;5030547;28;20268;-67
2021/01/12 03:12:49;;;;;;;4.00;3.53;;;;;;;3.58;82.69;99756.69;5043609;28;20226;-68
2021/01/12 03:15:16;;;;;;;5.90;4.10;;;;;;;3.58;82.36;99752.25;5030484;28;20260;-66
2021/01/12 03:17:42;;;;;;;4.53;3.83;;;;;;;3.58;82.93;99738.25;5035624;28;20577;-67
2021/01/12 03:20:09;;;;;;;4.53;3.70;;;;;;;3.56;83.05;99734.84;5042164;28;20245;-67
2021/01/12 03:22:35;;;;;;;3.73;3.17;;;;;;;3.55;82.97;99719.97;5052124;28;20197;-66
2021/01/12 03:25:02;;;;;;;4.27;3.33;;;;;;;3.55;82.35;99726.09;5037974;28;20214;-67
2021/01/12 03:27:27;;;;;;;3.67;3.10;;;;;;;3.57;82.79;99720.75;5046708;28;20722;-67
2021/01/12 03:29:53;;;;;;;4.20;3.13;;;;;;;3.55;83.09;99707.66;5032989;28;20298;-66
2021/01/12 03:32:20;;;;;;;3.47;3.07;;;;;;;3.56;82.79;99717.25;5043302;28;20257;-67
2021/01/12 03:34:46;;;;;;;4.47;3.10;;;;;;;3.56;82.48;99709.34;5049997;28;20208;-68
2021/01/12 03:37:12;;;;;;;3.50;3.20;;;;;;;3.57;82.99;99710.22;5048630;28;20717;-67
2021/01/12 03:39:38;;;;;;;3.77;3.07;;;;;;;3.56;82.90;99705.88;5045610;28;20209;-67
2021/01/12 03:42:04;;;;;;;5.23;3.60;;;;;;;3.56;83.09;99700.59;5035737;28;20202;-68
2021/01/12 03:44:30;;;;;;;4.50;3.70;;;;;;;3.56;83.60;99690.94;5033648;28;20202;-67
2021/01/12 03:46:56;;;;;;;4.60;3.03;;;;;;;3.55;83.67;99686.59;5032943;28;20240;-68
2021/01/12 03:49:24;;;;;;;3.67;3.20;;;;;;;3.56;82.82;99687.44;5041407;28;20240;-67
2021/01/12 03:51:50;;;;;;;5.23;3.33;;;;;;;3.57;83.15;99687.38;5044338;28;20225;-67
2021/01/12 03:54:16;;;;;;;4.60;3.67;;;;;;;3.56;82.66;99675.13;5053457;28;20212;-68
2021/01/12 03:56:42;;;;;;;3.53;2.93;;;;;;;3.58;83.63;99680.31;5042359;28;20610;-68
2021/01/12 03:59:07;;;;;;;3.60;3.30;;;;;;;3.58;83.67;99670.66;5041458;28;20297;-69
2021/01/12 04:01:33;;;;;;;4.20;3.50;;;;;;;3.59;82.90;99668.84;5044383;28;20293;-67
2021/01/12 04:03:59;;;;;;;3.37;3.07;;;;;;;3.59;83.04;99669.69;5034697;28;20293;-68
2021/01/12 04:06:26;;;;;;;3.10;2.67;;;;;;;3.59;83.09;99666.19;5035761;28;20304;-68
2021/01/12 04:08:55;;;;;;;2.63;2.40;;;;;;;3.60;83.04;99663.50;5044907;28;20210;-68
2021/01/12 04:11:21;;;;;;;3.30;2.53;;;;;;;3.61;83.03;99651.19;5052426;28;20213;-67
2021/01/12 04:13:47;;;;;;;3.10;2.80;;;;;;;3.62;83.30;99650.25;5033232;28;20203;-67
2021/01/12 04:16:14;;;;;;;3.90;2.70;;;;;;;3.62;83.19;99652.88;5033887;28;20237;-67
2021/01/12 04:18:40;;;;;;;2.40;1.90;;;;;;;3.64;83.34;99662.41;5035505;28;20201;-69
2021/01/12 04:21:05;;;;;;;2.77;2.30;;;;;;;3.66;83.73;99642.13;5048432;28;20748;-68
2021/01/12 04:23:32;;;;;;;2.47;1.93;;;;;;;3.66;83.59;99641.28;5044134;28;20289;-67
2021/01/12 04:25:59;;;;;;;2.83;2.27;;;;;;;3.69;83.82;99641.13;5032718;28;20589;-67
2021/01/12 04:28:25;;;;;;;2.40;2.20;;;;;;;3.67;82.97;99630.66;5049237;28;20209;-68
2021/01/12 04:30:50;;;;;;;2.73;2.17;;;;;;;3.67;83.59;99621.91;5035082;28;20698;-68
2021/01/12 04:33:17;;;;;;;3.07;2.80;;;;;;;3.66;83.40;99622.84;5039302;28;20257;-67
2021/01/12 04:35:43;;;;;;;3.17;2.33;;;;;;;3.64;83.58;99630.81;5044590;28;20228;-67
2021/01/12 04:38:08;;;;;;;3.27;2.73;;;;;;;3.62;83.07;99622.16;5046642;28;20210;-67
2021/01/12 04:40:36;;;;;;;2.93;2.63;;;;;;;3.61;83.74;99611.69;5037310;28;20230;-68
2021/01/12 04:43:02;;;;;;;2.67;2.10;;;;;;;3.61;83.04;99615.19;5037826;28;20667;-67
2021/01/12 04:45:28;;;;;;;2.27;2.07;;;;;;;3.61;83.00;99609.06;5044621;28;20225;-68
2021/01/12 04:47:54;;;;;;;3.50;3.10;;;;;;;3.60;83.46;99602.09;5036066;28;20270;-67
2021/01/12 04:50:20;;;;;;;2.23;1.80;;;;;;;3.59;82.97;99600.38;5041283;28;20639;-67
2021/01/12 04:52:48;;;;;;;2.43;2.00;;;;;;;3.57;83.31;99597.84;5047596;28;20244;-68
2021/01/12 04:55:15;;;;;;;1.90;1.80;;;;;;;3.57;83.43;99586.47;5040253;28;20593;-67
2021/01/12 04:57:43;;;;;;;2.00;1.50;;;;;;;3.53;83.23;99592.81;5030260;28;20268;-67
2021/01/12 05:00:12;;;;;;;1.93;1.63;;;;;;;3.49;83.13;99585.06;5046842;28;20209;-66
2021/01/12 05:02:39;;;;;;;1.87;1.77;;;;;;;3.49;83.06;99574.56;5036514;28;20619;-67
2021/01/12 05:05:06;;;;;;;1.90;1.70;;;;;;;3.49;83.03;99573.69;5037116;28;20206;-69
2021/01/12 05:07:33;;;;;;;1.60;1.50;;;;;;;3.47;83.29;99571.13;5037951;28;20573;-69
2021/01/12 05:09:59;;;;;;;2.07;1.73;;;;;;;3.46;83.27;99566.81;5041433;28;20210;-68
2021/01/12 05:12:27;;;;;;;2.23;1.87;;;;;;;3.43;83.10;99556.44;5040374;28;20680;-68
2021/01/12 05:14:58;;;;;;;2.03;1.60;;;;;;;3.42;82.91;99567.03;5037947;28;20202;-69
2021/01/12 05:17:24;;;;;;;1.60;1.37;;;;;;;3.38;83.39;99553.22;5046315;28;20226;-69
2021/01/12 05:19:55;;;;;;;1.77;1.33;;;;;;;3.37;82.76;99543.59;5044278;28;20650;-67
2021/01/12 05:22:21;;;;;;;2.33;1.50;;;;;;;3.35;83.29;99542.84;5042861;28;20203;-67
2021/01/12 05:24:49;;;;;;;2.00;1.40;;;;;;;3.32;83.69;99542.13;5049588;28;20198;-68
2021/01/12 05:27:15;;;;;;;1.70;1.40;;;;;;;3.29;83.00;99535.25;5052162;28;20721;-67
2021/01/12 05:29:41;;;;;;;1.27;1.17;;;;;;;3.25;83.38;99533.69;5049352;28;20632;-68
2021/01/12 05:32:09;;;;;;;1.40;1.20;;;;;;;3.27;83.48;99529.19;5030953;28;20280;-67
2021/01/12 05:34:35;;;;;;;1.37;1.27;;;;;;;3.23;83.04;99522.38;5031908;28;20198;-67
2021/01/12 05:37:04;;;;;;;1.50;1.27;;;;;;;3.24;83.29;99515.34;5044964;28;20233;-68
2021/01/12 05:39:36;;;;;;;1.30;1.20;;;;;;;3.22;83.41;99514.59;5041583;28;20534;-67
2021/01/12 05:42:05;;;;;;;1.73;1.47;;;;;;;3.22;83.76;99514.59;5043478;28;20198;-67
2021/01/12 05:44:35;;;;;;;1.23;1.13;;;;;;;3.22;83.67;99502.31;5032491;28;20210;-67
2021/01/12 05:47:01;;;;;;;1.20;1.00;;;;;;;3.22;83.93;99506.72;5043302;28;20706;-67
2021/01/12 05:49:29;;;;;;;1.07;0.97;;;;;;;3.21;83.46;99494.47;5032410;28;20206;-67
2021/01/12 05:51:56;;;;;;;1.40;1.30;;;;;;;3.19;83.14;99491.94;5031338;28;20260;-67
2021/01/12 05:54:31;;;;;;;1.30;1.20;;;;;;;3.20;83.35;99495.41;5032710;28;20206;-67
2021/01/12 05:56:58;;;;;;;1.13;0.90;;;;;;;3.19;83.48;99497.19;5050967;28;20233;-67
2021/01/12 05:59:26;;;;;;;1.10;1.00;;;;;;;3.19;83.23;99488.44;5043504;28;20691;-67
2021/01/12 06:01:53;;;;;;;1.13;1.00;;;;;;;3.18;83.79;99486.75;5034193;28;20252;-68
2021/01/12 06:04:20;;;;;;;1.30;1.20;;;;;;;3.18;83.29;99477.06;5043904;28;20700;-68
2021/01/12 06:06:49;;;;;;;1.70;1.20;;;;;;;3.19;83.57;99486.66;5043302;28;20257;-67
2021/01/12 06:09:16;;;;;;;0.90;0.90;;;;;;;3.19;83.69;99473.50;5038742;28;20202;-67
2021/01/12 06:11:44;;;;;;;1.17;1.07;;;;;;;3.19;83.61;99473.50;5049786;28;20228;-66
2021/01/12 06:14:11;;;;;;;1.20;0.97;;;;;;;3.20;83.34;99471.72;5032483;28;20217;-67
2021/01/12 06:16:39;;;;;;;1.07;1.00;;;;;;;3.18;83.32;99466.53;5033699;28;20229;-67
2021/01/12 06:19:08;;;;;;;0.93;0.80;;;;;;;3.19;84.03;99463.00;5038977;28;20559;-67
2021/01/12 06:21:35;;;;;;;1.30;1.10;;;;;;;3.19;84.13;99464.75;5040729;28;20694;-69
2021/01/12 06:24:10;;;;;;;1.50;1.20;;;;;;;3.20;83.88;99459.44;5031717;28;20555;-67
2021/01/12 06:26:40;;;;;;;0.80;0.80;;;;;;;3.23;84.25;99472.41;5048689;28;20563;-68
2021/01/12 06:29:07;;;;;;;1.00;1.00;;;;;;;3.23;83.78;99466.28;5039589;28;20210;-66
2021/01/12 06:31:42;;;;;;;0.97;0.87;;;;;;;3.25;84.27;99461.78;5046628;28;20201;-65
2021/01/12 06:34:09;;;;;;;0.80;0.80;;;;;;;3.24;83.69;99462.72;5039333;28;20202;-66
2021/01/12 06:36:40;;;;;;;2.00;1.10;;;;;;;3.23;83.79;99461.88;5035851;28;20218;-66
2021/01/12 06:39:11;;;;;;;1.07;0.93;;;;;;;3.24;83.90;99453.06;5043306;28;20232;-67
2021/01/12 06:41:38;;;;;;;1.00;0.90;;;;;;;3.26;84.18;99461.72;5043469;28;20212;-67
2021/01/12 06:44:20;;;;;;;0.97;0.90;;;;;;;3.27;84.52;99452.91;5048650;28;20210;-66
2021/01/12 06:46:49;;;;;;;1.33;0.80;;;;;;;3.29;83.82;99445.78;5050043;28;20593;-69
2021/01/12 06:49:17;;;;;;;0.97;0.90;;;;;;;3.31;84.05;99449.19;5043787;28;20209;-67
2021/01/12 06:51:43;;;;;;;1.03;0.97;;;;;;;3.32;83.89;99443.00;5032564;28;20206;-68
2021/01/12 06:54:14;;;;;;;1.10;1.00;;;;;;;3.32;84.44;99443.00;5046000;28;20320;-66
2021/01/12 06:56:41;;;;;;;1.43;1.03;;;;;;;3.33;84.23;99430.69;5051971;28;20229;-66
2021/01/12 06:59:13;;;;;;;1.37;1.00;;;;;;;3.34;84.35;99435.88;5046160;28;20202;-69
2021/01/12 07:01:39;;;;;;;1.80;1.10;;;;;;;3.35;83.96;99440.19;5038494;28;20671;-67
2021/01/12 07:04:05;;;;;;;1.00;1.00;;;;;;;3.38;83.99;99444.44;5046412;28;20198;-68
2021/01/12 07:06:33;;;;;;;0.90;0.90;;;;;;;3.39;84.05;99436.47;5041036;28;20286;-67
2021/01/12 07:09:00;;;;;;;1.10;1.00;;;;;;;3.42;84.15;99436.28;5040661;28;20625;-67
2021/01/12 07:11:27;;;;;;;0.90;0.80;;;;;;;3.43;84.68;99424.81;5050139;28;20214;-67
2021/01/12 07:13:53;;;;;;;1.00;0.90;;;;;;;3.44;84.34;99429.16;5040291;28;20233;-67
2021/01/12 07:16:19;;;;;;;0.87;0.87;;;;;;;3.45;84.28;99422.13;5047666;28;20228;-66
2021/01/12 07:18:57;;;;;;;1.17;0.93;;;;;;;3.44;84.26;99429.16;5040653;28;20656;-66
2021/01/12 07:21:28;;;;;;;1.23;1.00;;;;;;;3.46;84.81;99429.94;5046611;28;20209;-66
2021/01/12 07:24:00;;;;;;;1.33;1.00;;;;;;;3.46;84.33;99422.03;5041021;28;20206;-65
2021/01/12 07:26:28;;;;;;;1.03;0.97;;;;;;;3.46;84.88;99416.78;5036134;28;20229;-66
2021/01/12 07:29:04;;;;;;;2.37;1.30;;;;;;;3.47;84.27;99423.75;5045514;28;20224;-66
2021/01/12 07:31:30;;;;;;;0.87;0.87;;;;;;;3.49;84.10;99421.88;5041917;28;20666;-69
2021/01/12 07:33:56;;;;;;;1.10;1.00;;;;;;;3.49;84.57;99421.88;5045111;28;20233;-67
2021/01/12 07:36:23;;;;;;;1.43;1.10;;;;;;;3.49;84.92;99416.63;5040353;28;20658;-67
2021/01/12 07:38:50;;;;;;;1.13;1.03;;;;;;;3.53;84.98;99406.78;5034561;28;20210;-66
2021/01/12 07:41:17;;;;;;;1.90;1.10;;;;;;;3.53;84.65;99404.16;5041659;28;20205;-66
2021/01/12 07:43:43;;;;;;;1.50;1.40;;;;;;;3.54;84.77;99410.25;5042180;28;20198;-67
2021/01/12 07:46:10;;;;;;;1.60;1.30;;;;;;;3.56;84.91;99405.75;5042178;28;20222;-68
2021/01/12 07:48:36;;;;;;;1.90;1.10;;;;;;;3.56;85.07;99405.75;5044096;28;20202;-68
2021/01/12 07:51:03;;;;;;;2.00;1.37;;;;;;;3.57;85.11;99412.72;5035654;28;20726;-67
2021/01/12 07:53:31;;;;;;;1.40;1.20;;;;;;;3.59;84.92;99411.69;5038952;28;20229;-67
2021/01/12 07:55:57;;;;;;;2.73;1.40;;;;;;;3.61;85.09;99414.25;5037990;28;20249;-70
2021/01/12 07:58:24;;;;;;;1.40;1.30;;;;;;;3.62;84.90;99414.16;5044042;28;20210;-68
2021/01/12 08:00:51;;;;;;;1.30;1.20;;;;;;;3.64;85.10;99412.28;5043979;28;20205;-68
2021/01/12 08:03:24;;;;;;;1.43;1.10;;;;;;;3.66;85.37;99409.59;5040981;28;20205;-67
2021/01/12 08:05:58;;;;;;;1.50;1.40;;;;;;;3.67;85.26;99421.81;5039817;28;20225;-66
2021/01/12 08:08:25;;;;;;;1.50;1.40;;;;;;;3.70;84.61;99414.59;5035700;28;20202;-66
2021/01/12 08:10:51;;;;;;;2.20;1.60;;;;;;;3.73;85.28;99410.97;5038750;28;20206;-67
2021/01/12 08:13:17;;;;;;;1.27;1.17;;;;;;;3.74;84.97;99410.88;5038251;28;20234;-66
2021/01/12 08:15:44;;;;;;;1.40;1.30;;;;;;;3.77;84.95;99415.09;5039061;28;20748;-68
2021/01/12 08:18:13;;;;;;;1.97;1.70;;;;;;;3.79;85.48;99411.44;5038769;28;20206;-66
2021/01/12 08:20:39;;;;;;;1.63;1.43;;;;;;;3.82;84.79;99410.44;5034691;28;20217;-67
2021/01/12 08:23:06;;;;;;;1.17;1.00;;;;;;;3.86;84.89;99424.28;5036512;28;20202;-67
2021/01/12 08:25:33;;;;;;;1.43;1.30;;;;;;;3.88;85.63;99423.28;5037773;28;21820;-68
2021/01/12 08:28:01;;;;;;;1.40;1.30;;;;;;;3.91;85.73;99428.38;5041845;28;20210;-66
2021/01/12 08:30:29;;;;;;;1.50;1.40;;;;;;;3.96;85.62;99431.56;5042242;28;20343;-67
2021/01/12 08:33:00;;;;;;;1.30;1.20;;;;;;;3.98;85.25;99426.22;5039050;28;20226;-68
2021/01/12 08:35:30;;;;;;;1.57;1.47;;;;;;;4.01;85.25;99426.06;5036615;28;20225;-68
2021/01/12 08:37:58;;;;;;;1.60;1.50;;;;;;;4.04;85.47;99437.28;5039484;28;20202;-66
2021/01/12 08:40:26;;;;;;;1.67;1.57;;;;;;;4.07;84.98;99434.47;5038761;28;20206;-68
2021/01/12 08:42:53;;;;;;;1.87;1.70;;;;;;;4.09;85.31;99429.13;5032794;28;20202;-67
2021/01/12 08:45:20;;;;;;;1.87;1.77;;;;;;;4.12;85.50;99436.88;5038364;28;20239;-68
2021/01/12 08:47:46;;;;;;;2.67;2.47;;;;;;;4.13;85.07;99441.16;5037304;28;20214;-68
2021/01/12 08:50:13;;;;;;;3.10;2.70;;;;;;;4.17;85.37;99442.72;5040495;28;20248;-70
2021/01/12 08:52:45;;;;;;;20.47;17.37;;;;;;;4.18;85.01;99445.25;5041045;28;20230;-68
2021/01/12 08:55:15;;;;;;;2.30;2.10;;;;;;;4.19;85.70;99454.00;5045029;28;20218;-67
2021/01/12 08:57:41;;;;;;;2.03;1.93;;;;;;;4.22;85.26;99455.63;5039136;28;20205;-66
2021/01/12 09:00:11;;;;;;;2.40;2.20;;;;;;;4.22;85.20;99448.56;5037536;28;20209;-69
2021/01/12 09:02:38;;;;;;;2.07;1.70;;;;;;;4.24;85.29;99456.41;5057558;22;20291;-64
2021/01/12 09:05:06;;;;;;;1.90;1.73;;;;;;;4.23;85.83;99457.34;5039458;28;20206;-63
2021/01/12 09:07:33;;;;;;;2.60;2.40;;;;;;;4.25;85.87;99451.03;5042570;28;20252;-63
2021/01/12 09:10:00;;;;;;;2.83;2.07;;;;;;;4.27;85.74;99450.97;5034856;28;20264;-64
2021/01/12 09:12:27;;;;;;;3.87;3.53;;;;;;;4.29;85.63;99449.09;5033569;28;20233;-63
2021/01/12 09:14:52;;;;;;;7.97;7.17;;;;;;;4.31;86.01;99450.69;5038334;28;20207;-64
2021/01/12 09:17:20;;;;;;;2.60;2.10;;;;;;;4.33;86.01;99456.72;5040784;28;20694;-64
2021/01/12 09:19:50;;;;;;;2.03;1.70;;;;;;;4.34;86.01;99450.50;5042825;28;20284;-64
2021/01/12 09:22:17;;;;;;;2.20;2.00;;;;;;;4.35;85.78;99444.31;5036571;28;20228;-63
2021/01/12 09:24:48;;;;;;;1.60;1.50;;;;;;;4.35;85.62;99440.81;5043921;28;20233;-63
2021/01/12 09:27:26;;;;;;;2.20;1.93;;;;;;;4.36;86.27;99443.38;5038269;28;20202;-64
2021/01/12 09:29:52;;;;;;;1.60;1.50;;;;;;;4.38;86.19;99445.91;5043040;28;20209;-65
2021/01/12 09:32:26;;;;;;;3.57;3.27;;;;;;;4.41;85.72;99440.47;5044236;28;20229;-64
2021/01/12 09:34:52;;;;;;;3.10;2.80;;;;;;;4.42;85.95;99442.19;5050803;28;20287;-64
2021/01/12 09:37:18;;;;;;;1.73;1.50;;;;;;;4.43;86.36;99438.59;5043721;28;20237;-65
2021/01/12 09:39:46;;;;;;;2.80;2.10;;;;;;;4.44;86.13;99437.66;5038055;28;20202;-64
2021/01/12 09:42:18;;;;;;;2.70;2.13;;;;;;;4.46;86.49;99441.06;5043791;28;20218;-65
2021/01/12 09:44:46;;;;;;;2.03;1.77;;;;;;;4.49;86.45;99432.97;5046457;28;20260;-64
2021/01/12 09:47:12;;;;;;;2.77;2.57;;;;;;;4.48;86.23;99429.47;5038903;28;20206;-65
2021/01/12 09:49:38;;;;;;;1.50;1.40;;;;;;;4.50;86.12;99432.03;5042117;28;20255;-66
2021/01/12 09:52:04;;;;;;;1.60;1.50;;;;;;;4.52;86.06;99435.41;5045049;28;20232;-65
2021/01/12 09:54:31;;;;;;;2.43;1.80;;;;;;;4.53;86.08;99429.22;5040907;28;20213;-65
2021/01/12 09:56:57;;;;;;;1.67;1.47;;;;;;;4.54;86.34;99430.91;5039298;28;20210;-65
2021/01/12 09:59:23;;;;;;;2.27;1.43;;;;;;;4.56;86.19;99429.03;5040755;28;20972;-64
2021/01/12 10:01:55;;;;;;;1.90;1.80;;;;;;;4.58;86.59;99432.44;5039310;28;20233;-63
2021/01/12 10:04:21;;;;;;;2.47;1.97;;;;;;;4.61;86.36;99441.97;5038565;28;20217;-63
2021/01/12 10:06:47;;;;;;;1.97;1.40;;;;;;;4.62;86.40;99439.25;5038411;28;20206;-64
2021/01/12 10:09:13;;;;;;;2.60;2.40;;;;;;;4.65;86.81;99449.63;5047631;28;20209;-64
2021/01/12 10:11:39;;;;;;;2.33;2.13;;;;;;;4.67;86.44;99449.50;5040754;28;20229;-62
2021/01/12 10:14:05;;;;;;;3.40;3.10;;;;;;;4.69;86.50;99448.47;5040231;28;20232;-65
2021/01/12 10:16:31;;;;;;;5.87;5.37;;;;;;;4.70;86.70;99442.25;5035643;28;20596;-65
2021/01/12 10:18:58;;;;;;;2.50;2.30;;;;;;;4.72;86.66;99447.44;5035282;28;20215;-65
2021/01/12 10:21:24;;;;;;;2.67;2.47;;;;;;;4.72;86.75;99453.56;5033137;28;20233;-66
2021/01/12 10:23:50;;;;;;;4.20;3.90;;;;;;;4.75;86.79;99457.81;5036101;28;20202;-65
2021/01/12 10:26:18;;;;;;;2.77;2.57;;;;;;;4.76;86.57;99455.09;5043110;28;20615;-65
2021/01/12 10:28:46;;;;;;;2.90;2.20;;;;;;;4.78;86.89;99466.41;5047550;28;20209;-66
2021/01/12 10:31:14;;;;;;;2.40;2.20;;;;;;;4.78;86.58;99469.06;5048646;28;20198;-65
2021/01/12 10:33:40;;;;;;;2.80;1.30;;;;;;;4.79;86.46;99518.22;5049944;28;20710;-66
2021/01/12 10:36:07;;;;;;;0.80;0.70;;;;;;;4.75;86.06;99519.34;5045422;28;20205;-65
2021/01/12 10:38:34;;;;;;;1.57;0.40;;;;;;;4.67;86.04;99536.53;5049412;28;20198;-66
2021/01/12 10:41:00;;;;;;;0.97;0.30;;;;;;;4.49;85.72;99536.63;5049869;28;20658;-65
2021/01/12 10:43:26;;;;;;;1.10;0.20;;;;;;;4.28;85.58;99539.63;5048677;28;20217;-65
2021/01/12 10:45:52;;;;;;;2.07;0.50;;;;;;;4.09;85.38;99550.34;5049396;28;20208;-66
2021/01/12 10:48:18;;;;;;;0.33;0.20;;;;;;;3.96;85.96;99550.13;5048897;28;20205;-65
2021/01/12 10:50:44;;;;;;;1.33;0.47;;;;;;;3.86;85.51;99556.81;5048815;28;20201;-65
2021/01/12 10:53:11;;;;;;;2.03;0.30;;;;;;;3.76;85.04;99571.44;5042687;28;20324;-65
2021/01/12 10:55:37;;;;;;;1.20;0.20;;;;;;;3.69;85.15;99575.31;5045615;28;20202;-63
2021/01/12 10:58:03;;;;;;;1.93;0.33;;;;;;;3.62;85.49;99581.81;5043804;28;20229;-65
2021/01/12 11:00:30;;;;;;;0.63;0.30;;;;;;;3.56;85.87;99583.00;5036597;28;20267;-65
2021/01/12 11:02:57;;;;;;;1.23;0.40;;;;;;;3.53;85.50;99590.19;5038820;28;20228;-65
2021/01/12 11:05:23;;;;;;;2.30;0.40;;;;;;;3.48;85.29;99593.91;5046729;28;20216;-65
2021/01/12 11:07:49;;;;;;;3.17;0.60;;;;;;;3.45;85.45;99596.69;5045818;28;20255;-65
2021/01/12 11:10:16;;;;;;;0.80;0.50;;;;;;;3.43;85.22;99595.91;5039979;28;20784;-64
2021/01/12 11:12:43;;;;;;;1.70;0.50;;;;;;;3.39;85.20;99599.66;5041533;28;20225;-64
2021/01/12 11:15:11;;;;;;;2.67;0.50;;;;;;;3.39;84.88;99602.28;5041955;28;20638;-65
2021/01/12 11:17:37;;;;;;;0.93;0.50;;;;;;;3.38;85.30;99603.22;5045580;28;20674;-65
2021/01/12 11:20:06;;;;;;;0.93;0.40;;;;;;;3.39;85.36;99599.66;5049815;28;20212;-65
2021/01/12 11:22:32;;;;;;;0.90;0.57;;;;;;;3.39;84.80;99607.53;5042857;28;20226;-63
2021/01/12 11:25:01;;;;;;;3.43;0.87;;;;;;;3.39;85.24;99601.44;5040492;28;20217;-64
2021/01/12 11:27:28;;;;;;;4.33;0.60;;;;;;;3.41;85.42;99604.81;5041088;28;20245;-65
2021/01/12 11:29:55;;;;;;;1.27;0.60;;;;;;;3.43;84.70;99609.06;5035739;28;20289;-64
2021/01/12 11:32:22;;;;;;;1.50;0.63;;;;;;;3.42;84.78;99604.72;5041108;28;20291;-67
2021/01/12 11:34:49;;;;;;;4.03;0.60;;;;;;;3.44;84.95;99607.28;5039497;28;20206;-65
2021/01/12 11:37:15;;;;;;;1.83;0.70;;;;;;;3.46;84.96;99611.56;5041103;28;20212;-64
2021/01/12 11:39:42;;;;;;;3.93;1.00;;;;;;;3.47;84.85;99608.00;5044969;28;20202;-63
2021/01/12 11:42:12;;;;;;;2.43;0.70;;;;;;;3.51;84.73;99605.22;5044771;28;20233;-64